sensor_id;sensor_type;location;lat;lon;timestamp;temperature;humidity
71088;SHT31;58747;50.674;4.616;2022-08-03T00:01:52;20.38;75.08
71088;SHT31;58747;50.674;4.616;2022-08-03T00:04:17;20.37;75.07
71088;SHT31;58747;50.674;4.616;2022-08-03T00:06:42;20.37;75.09
71088;SHT31;58747;50.674;4.616;2022-08-03T00:09:08;20.33;75.34
71088;SHT31;58747;50.674;4.616;2022-08-03T00:11:34;20.27;75.51
71088;SHT31;58747;50.674;4.616;2022-08-03T00:13:59;20.25;75.46
71088;SHT31;58747;50.674;4.616;2022-08-03T00:16:25;20.25;75.48
71088;SHT31;58747;50.674;4.616;2022-08-03T00:18:50;20.25;75.52
71088;SHT31;58747;50.674;4.616;2022-08-03T00:21:16;20.21;75.78
71088;SHT31;58747;50.674;4.616;2022-08-03T00:23:41;20.17;75.83
71088;SHT31;58747;50.674;4.616;2022-08-03T00:26:07;20.16;75.73
71088;SHT31;58747;50.674;4.616;2022-08-03T00:28:32;20.16;75.81
71088;SHT31;58747;50.674;4.616;2022-08-03T00:30:58;20.13;76.03
71088;SHT31;58747;50.674;4.616;2022-08-03T00:33:23;20.07;76.17
71088;SHT31;58747;50.674;4.616;2022-08-03T00:35:48;20.07;76.03
71088;SHT31;58747;50.674;4.616;2022-08-03T00:38:14;20.03;76.31
71088;SHT31;58747;50.674;4.616;2022-08-03T00:40:39;20.01;76.30
71088;SHT31;58747;50.674;4.616;2022-08-03T00:43:06;20.01;76.21
71088;SHT31;58747;50.674;4.616;2022-08-03T00:45:37;19.98;76.27
71088;SHT31;58747;50.674;4.616;2022-08-03T00:48:04;19.96;76.35
71088;SHT31;58747;50.674;4.616;2022-08-03T00:50:32;19.94;76.41
71088;SHT31;58747;50.674;4.616;2022-08-03T00:53:00;19.92;76.54
71088;SHT31;58747;50.674;4.616;2022-08-03T00:55:26;19.89;76.63
71088;SHT31;58747;50.674;4.616;2022-08-03T00:57:52;19.87;76.63
71088;SHT31;58747;50.674;4.616;2022-08-03T01:00:20;19.83;77.01
71088;SHT31;58747;50.674;4.616;2022-08-03T01:02:46;19.82;76.83
71088;SHT31;58747;50.674;4.616;2022-08-03T01:05:12;19.82;76.63
71088;SHT31;58747;50.674;4.616;2022-08-03T01:13:25;19.70;77.27
71088;SHT31;58747;50.674;4.616;2022-08-03T01:16:02;19.70;77.05
71088;SHT31;58747;50.674;4.616;2022-08-03T01:18:38;19.69;77.19
71088;SHT31;58747;50.674;4.616;2022-08-03T01:21:11;19.69;77.26
71088;SHT31;58747;50.674;4.616;2022-08-03T01:26:43;19.61;77.24
71088;SHT31;58747;50.674;4.616;2022-08-03T01:32:30;19.54;77.64
71088;SHT31;58747;50.674;4.616;2022-08-03T01:35:02;19.49;77.79
71088;SHT31;58747;50.674;4.616;2022-08-03T01:37:37;19.46;77.89
71088;SHT31;58747;50.674;4.616;2022-08-03T01:40:05;19.51;77.67
71088;SHT31;58747;50.674;4.616;2022-08-03T01:42:32;19.48;77.70
71088;SHT31;58747;50.674;4.616;2022-08-03T01:44:59;19.42;77.72
71088;SHT31;58747;50.674;4.616;2022-08-03T01:47:26;19.41;77.89
71088;SHT31;58747;50.674;4.616;2022-08-03T01:49:52;19.39;78.01
71088;SHT31;58747;50.674;4.616;2022-08-03T01:52:19;19.39;77.82
71088;SHT31;58747;50.674;4.616;2022-08-03T01:54:48;19.35;78.07
71088;SHT31;58747;50.674;4.616;2022-08-03T01:57:15;19.36;78.14
71088;SHT31;58747;50.674;4.616;2022-08-03T01:59:42;19.32;78.21
71088;SHT31;58747;50.674;4.616;2022-08-03T02:02:11;19.29;78.22
71088;SHT31;58747;50.674;4.616;2022-08-03T02:04:38;19.27;78.14
71088;SHT31;58747;50.674;4.616;2022-08-03T02:07:06;19.25;78.17
71088;SHT31;58747;50.674;4.616;2022-08-03T02:09:36;19.19;78.35
71088;SHT31;58747;50.674;4.616;2022-08-03T02:12:08;19.14;78.39
71088;SHT31;58747;50.674;4.616;2022-08-03T02:14:36;19.15;78.57
71088;SHT31;58747;50.674;4.616;2022-08-03T02:17:02;19.10;78.88
71088;SHT31;58747;50.674;4.616;2022-08-03T02:19:29;19.10;78.79
71088;SHT31;58747;50.674;4.616;2022-08-03T02:21:56;19.11;78.73
71088;SHT31;58747;50.674;4.616;2022-08-03T02:24:22;19.10;78.55
71088;SHT31;58747;50.674;4.616;2022-08-03T02:26:48;19.10;78.56
71088;SHT31;58747;50.674;4.616;2022-08-03T02:29:19;19.07;78.52
71088;SHT31;58747;50.674;4.616;2022-08-03T02:31:46;19.06;78.62
71088;SHT31;58747;50.674;4.616;2022-08-03T02:34:14;19.03;78.60
71088;SHT31;58747;50.674;4.616;2022-08-03T02:36:42;19.00;78.63
71088;SHT31;58747;50.674;4.616;2022-08-03T02:39:10;18.96;78.84
71088;SHT31;58747;50.674;4.616;2022-08-03T02:41:48;18.91;79.06
71088;SHT31;58747;50.674;4.616;2022-08-03T02:44:16;18.91;79.05
71088;SHT31;58747;50.674;4.616;2022-08-03T02:46:44;18.87;79.25
71088;SHT31;58747;50.674;4.616;2022-08-03T02:49:12;18.83;79.12
71088;SHT31;58747;50.674;4.616;2022-08-03T02:51:39;18.80;79.23
71088;SHT31;58747;50.674;4.616;2022-08-03T02:54:06;18.77;79.25
71088;SHT31;58747;50.674;4.616;2022-08-03T02:56:34;18.77;79.27
71088;SHT31;58747;50.674;4.616;2022-08-03T02:59:00;18.76;79.27
71088;SHT31;58747;50.674;4.616;2022-08-03T03:01:27;18.73;79.31
71088;SHT31;58747;50.674;4.616;2022-08-03T03:03:55;18.76;79.32
71088;SHT31;58747;50.674;4.616;2022-08-03T03:06:22;18.70;79.45
71088;SHT31;58747;50.674;4.616;2022-08-03T03:08:50;18.67;79.58
71088;SHT31;58747;50.674;4.616;2022-08-03T03:11:18;18.66;79.58
71088;SHT31;58747;50.674;4.616;2022-08-03T03:13:43;18.60;79.74
71088;SHT31;58747;50.674;4.616;2022-08-03T03:16:11;18.56;79.85
71088;SHT31;58747;50.674;4.616;2022-08-03T03:18:38;18.60;79.81
71088;SHT31;58747;50.674;4.616;2022-08-03T03:21:06;18.56;79.85
71088;SHT31;58747;50.674;4.616;2022-08-03T03:23:35;18.52;80.00
71088;SHT31;58747;50.674;4.616;2022-08-03T03:26:01;18.49;80.06
71088;SHT31;58747;50.674;4.616;2022-08-03T03:28:27;18.48;80.19
71088;SHT31;58747;50.674;4.616;2022-08-03T03:30:52;18.46;80.23
71088;SHT31;58747;50.674;4.616;2022-08-03T03:33:18;18.43;80.20
71088;SHT31;58747;50.674;4.616;2022-08-03T03:35:43;18.43;80.43
71088;SHT31;58747;50.674;4.616;2022-08-03T03:38:10;18.43;80.45
71088;SHT31;58747;50.674;4.616;2022-08-03T03:40:39;18.42;80.60
71088;SHT31;58747;50.674;4.616;2022-08-03T03:43:09;18.40;80.53
71088;SHT31;58747;50.674;4.616;2022-08-03T03:45:35;18.40;80.51
71088;SHT31;58747;50.674;4.616;2022-08-03T03:48:04;18.42;80.54
71088;SHT31;58747;50.674;4.616;2022-08-03T03:50:31;18.43;80.40
71088;SHT31;58747;50.674;4.616;2022-08-03T03:52:57;18.42;80.45
71088;SHT31;58747;50.674;4.616;2022-08-03T03:55:23;18.43;80.48
71088;SHT31;58747;50.674;4.616;2022-08-03T03:57:48;18.48;80.58
71088;SHT31;58747;50.674;4.616;2022-08-03T04:00:16;18.49;80.41
71088;SHT31;58747;50.674;4.616;2022-08-03T04:02:42;18.50;80.55
71088;SHT31;58747;50.674;4.616;2022-08-03T04:05:07;18.59;80.20
71088;SHT31;58747;50.674;4.616;2022-08-03T04:08:05;18.57;80.37
71088;SHT31;58747;50.674;4.616;2022-08-03T04:11:14;18.59;80.22
71088;SHT31;58747;50.674;4.616;2022-08-03T04:16:24;18.57;80.41
71088;SHT31;58747;50.674;4.616;2022-08-03T04:18:54;18.56;80.32
71088;SHT31;58747;50.674;4.616;2022-08-03T04:21:21;18.56;80.34
71088;SHT31;58747;50.674;4.616;2022-08-03T04:23:48;18.57;80.20
71088;SHT31;58747;50.674;4.616;2022-08-03T04:26:18;18.59;80.14
71088;SHT31;58747;50.674;4.616;2022-08-03T04:28:45;18.56;80.09
71088;SHT31;58747;50.674;4.616;2022-08-03T04:31:12;18.59;80.17
71088;SHT31;58747;50.674;4.616;2022-08-03T04:33:40;18.59;80.09
71088;SHT31;58747;50.674;4.616;2022-08-03T04:36:08;18.57;80.14
71088;SHT31;58747;50.674;4.616;2022-08-03T04:39:01;18.56;80.09
71088;SHT31;58747;50.674;4.616;2022-08-03T04:41:27;18.59;80.15
71088;SHT31;58747;50.674;4.616;2022-08-03T04:43:56;18.59;80.23
71088;SHT31;58747;50.674;4.616;2022-08-03T04:46:26;18.57;80.22
71088;SHT31;58747;50.674;4.616;2022-08-03T04:48:53;18.56;80.25
71088;SHT31;58747;50.674;4.616;2022-08-03T04:51:22;18.55;80.34
71088;SHT31;58747;50.674;4.616;2022-08-03T04:53:47;18.53;80.38
71088;SHT31;58747;50.674;4.616;2022-08-03T04:56:12;18.50;80.47
71088;SHT31;58747;50.674;4.616;2022-08-03T04:58:38;18.55;80.49
71088;SHT31;58747;50.674;4.616;2022-08-03T05:01:03;18.55;80.34
71088;SHT31;58747;50.674;4.616;2022-08-03T05:03:29;18.55;80.40
71088;SHT31;58747;50.674;4.616;2022-08-03T05:05:55;18.55;80.58
71088;SHT31;58747;50.674;4.616;2022-08-03T05:08:21;18.56;80.36
71088;SHT31;58747;50.674;4.616;2022-08-03T05:10:46;18.57;80.38
71088;SHT31;58747;50.674;4.616;2022-08-03T05:13:12;18.59;80.62
71088;SHT31;58747;50.674;4.616;2022-08-03T05:15:38;18.60;80.50
71088;SHT31;58747;50.674;4.616;2022-08-03T05:18:03;18.66;80.04
71088;SHT31;58747;50.674;4.616;2022-08-03T05:20:29;18.70;79.73
71088;SHT31;58747;50.674;4.616;2022-08-03T05:22:55;18.71;79.89
71088;SHT31;58747;50.674;4.616;2022-08-03T05:25:20;18.80;79.14
71088;SHT31;58747;50.674;4.616;2022-08-03T05:27:46;18.81;79.13
71088;SHT31;58747;50.674;4.616;2022-08-03T05:30:11;18.87;79.08
71088;SHT31;58747;50.674;4.616;2022-08-03T05:32:37;18.90;79.30
71088;SHT31;58747;50.674;4.616;2022-08-03T05:35:02;18.90;79.38
71088;SHT31;58747;50.674;4.616;2022-08-03T05:37:28;18.90;79.00
71088;SHT31;58747;50.674;4.616;2022-08-03T05:39:53;18.96;79.26
71088;SHT31;58747;50.674;4.616;2022-08-03T05:42:19;19.00;78.95
71088;SHT31;58747;50.674;4.616;2022-08-03T05:44:44;19.00;78.90
71088;SHT31;58747;50.674;4.616;2022-08-03T05:47:09;19.08;78.57
71088;SHT31;58747;50.674;4.616;2022-08-03T05:49:35;19.19;78.02
71088;SHT31;58747;50.674;4.616;2022-08-03T05:52:08;19.22;78.31
71088;SHT31;58747;50.674;4.616;2022-08-03T05:54:33;19.18;78.21
71088;SHT31;58747;50.674;4.616;2022-08-03T05:56:59;19.19;78.55
71088;SHT31;58747;50.674;4.616;2022-08-03T05:59:24;19.24;78.55
71088;SHT31;58747;50.674;4.616;2022-08-03T06:01:50;19.25;78.37
71088;SHT31;58747;50.674;4.616;2022-08-03T06:04:15;19.28;78.10
71088;SHT31;58747;50.674;4.616;2022-08-03T06:06:41;19.41;78.37
71088;SHT31;58747;50.674;4.616;2022-08-03T06:09:07;19.72;76.72
71088;SHT31;58747;50.674;4.616;2022-08-03T06:11:33;20.12;75.10
71088;SHT31;58747;50.674;4.616;2022-08-03T06:13:59;20.52;73.91
71088;SHT31;58747;50.674;4.616;2022-08-03T06:16:24;21.06;71.72
71088;SHT31;58747;50.674;4.616;2022-08-03T06:18:50;21.55;70.57
71088;SHT31;58747;50.674;4.616;2022-08-03T06:21:15;22.40;67.88
71088;SHT31;58747;50.674;4.616;2022-08-03T06:23:40;23.21;65.19
71088;SHT31;58747;50.674;4.616;2022-08-03T06:26:07;23.77;63.03
71088;SHT31;58747;50.674;4.616;2022-08-03T06:28:33;24.16;61.67
71088;SHT31;58747;50.674;4.616;2022-08-03T06:30:58;24.38;60.14
71088;SHT31;58747;50.674;4.616;2022-08-03T06:33:23;24.47;59.24
71088;SHT31;58747;50.674;4.616;2022-08-03T06:35:50;24.47;59.69
71088;SHT31;58747;50.674;4.616;2022-08-03T06:38:15;24.12;60.78
71088;SHT31;58747;50.674;4.616;2022-08-03T06:40:41;23.99;61.39
71088;SHT31;58747;50.674;4.616;2022-08-03T06:43:06;23.73;62.19
71088;SHT31;58747;50.674;4.616;2022-08-03T06:45:33;23.65;62.34
71088;SHT31;58747;50.674;4.616;2022-08-03T06:48:07;23.67;63.16
71088;SHT31;58747;50.674;4.616;2022-08-03T06:50:35;23.56;63.25
71088;SHT31;58747;50.674;4.616;2022-08-03T06:53:02;23.46;63.42
71088;SHT31;58747;50.674;4.616;2022-08-03T06:55:27;23.37;62.93
71088;SHT31;58747;50.674;4.616;2022-08-03T06:57:53;23.58;63.11
71088;SHT31;58747;50.674;4.616;2022-08-03T07:00:19;23.77;62.85
71088;SHT31;58747;50.674;4.616;2022-08-03T07:02:45;23.77;62.01
71088;SHT31;58747;50.674;4.616;2022-08-03T07:05:10;24.03;61.89
71088;SHT31;58747;50.674;4.616;2022-08-03T07:07:36;24.09;61.93
71088;SHT31;58747;50.674;4.616;2022-08-03T07:10:03;24.30;61.54
71088;SHT31;58747;50.674;4.616;2022-08-03T07:12:30;24.42;61.34
71088;SHT31;58747;50.674;4.616;2022-08-03T07:14:56;24.41;60.98
71088;SHT31;58747;50.674;4.616;2022-08-03T07:17:22;24.37;59.54
71088;SHT31;58747;50.674;4.616;2022-08-03T07:19:47;24.35;59.46
71088;SHT31;58747;50.674;4.616;2022-08-03T07:22:13;24.50;59.08
71088;SHT31;58747;50.674;4.616;2022-08-03T07:24:38;24.38;59.78
71088;SHT31;58747;50.674;4.616;2022-08-03T07:27:04;24.42;59.21
71088;SHT31;58747;50.674;4.616;2022-08-03T07:29:29;24.51;58.95
71088;SHT31;58747;50.674;4.616;2022-08-03T07:31:54;24.47;58.68
71088;SHT31;58747;50.674;4.616;2022-08-03T07:34:20;24.62;58.74
71088;SHT31;58747;50.674;4.616;2022-08-03T07:36:45;24.67;59.25
71088;SHT31;58747;50.674;4.616;2022-08-03T07:39:11;24.78;57.69
71088;SHT31;58747;50.674;4.616;2022-08-03T07:41:36;24.93;58.16
71088;SHT31;58747;50.674;4.616;2022-08-03T07:44:01;25.12;57.26
71088;SHT31;58747;50.674;4.616;2022-08-03T07:46:27;25.26;56.76
71088;SHT31;58747;50.674;4.616;2022-08-03T07:48:52;25.49;56.46
71088;SHT31;58747;50.674;4.616;2022-08-03T07:51:18;25.56;55.84
71088;SHT31;58747;50.674;4.616;2022-08-03T07:53:43;25.71;56.07
71088;SHT31;58747;50.674;4.616;2022-08-03T07:56:08;25.84;55.69
71088;SHT31;58747;50.674;4.616;2022-08-03T07:58:34;25.89;55.15
71088;SHT31;58747;50.674;4.616;2022-08-03T08:01:00;26.24;55.07
71088;SHT31;58747;50.674;4.616;2022-08-03T08:03:25;26.57;54.45
71088;SHT31;58747;50.674;4.616;2022-08-03T08:05:51;26.95;52.91
71088;SHT31;58747;50.674;4.616;2022-08-03T08:08:18;26.97;52.53
71088;SHT31;58747;50.674;4.616;2022-08-03T08:10:44;27.04;51.94
71088;SHT31;58747;50.674;4.616;2022-08-03T08:13:10;27.03;51.86
71088;SHT31;58747;50.674;4.616;2022-08-03T08:15:35;27.07;51.51
71088;SHT31;58747;50.674;4.616;2022-08-03T08:18:01;27.22;50.08
71088;SHT31;58747;50.674;4.616;2022-08-03T08:20:31;27.22;50.08
71088;SHT31;58747;50.674;4.616;2022-08-03T08:22:59;27.39;50.41
71088;SHT31;58747;50.674;4.616;2022-08-03T08:25:25;27.44;49.07
71088;SHT31;58747;50.674;4.616;2022-08-03T08:27:51;27.78;49.52
71088;SHT31;58747;50.674;4.616;2022-08-03T08:30:20;27.85;48.13
71088;SHT31;58747;50.674;4.616;2022-08-03T08:32:46;27.85;48.87
71088;SHT31;58747;50.674;4.616;2022-08-03T08:35:12;27.94;48.31
71088;SHT31;58747;50.674;4.616;2022-08-03T08:37:38;28.14;48.50
71088;SHT31;58747;50.674;4.616;2022-08-03T08:40:05;28.03;47.39
71088;SHT31;58747;50.674;4.616;2022-08-03T08:42:36;28.03;47.58
71088;SHT31;58747;50.674;4.616;2022-08-03T08:45:01;28.33;47.86
71088;SHT31;58747;50.674;4.616;2022-08-03T08:47:30;28.30;47.07
71088;SHT31;58747;50.674;4.616;2022-08-03T08:49:57;28.65;47.46
71088;SHT31;58747;50.674;4.616;2022-08-03T08:52:24;28.72;46.37
71088;SHT31;58747;50.674;4.616;2022-08-03T08:55:01;28.79;46.13
71088;SHT31;58747;50.674;4.616;2022-08-03T08:57:43;28.92;45.15
71088;SHT31;58747;50.674;4.616;2022-08-03T09:00:10;29.02;44.78
71088;SHT31;58747;50.674;4.616;2022-08-03T09:02:40;29.23;43.75
71088;SHT31;58747;50.674;4.616;2022-08-03T09:05:14;29.25;44.99
71088;SHT31;58747;50.674;4.616;2022-08-03T09:07:41;29.34;43.50
71088;SHT31;58747;50.674;4.616;2022-08-03T09:10:08;29.33;43.91
71088;SHT31;58747;50.674;4.616;2022-08-03T09:12:42;29.43;44.70
71088;SHT31;58747;50.674;4.616;2022-08-03T09:15:31;29.46;44.83
71088;SHT31;58747;50.674;4.616;2022-08-03T09:18:01;29.71;42.57
71088;SHT31;58747;50.674;4.616;2022-08-03T09:20:32;29.91;43.76
71088;SHT31;58747;50.674;4.616;2022-08-03T09:23:00;29.81;42.44
71088;SHT31;58747;50.674;4.616;2022-08-03T09:25:34;29.88;42.69
71088;SHT31;58747;50.674;4.616;2022-08-03T09:30:38;30.05;43.28
71088;SHT31;58747;50.674;4.616;2022-08-03T09:33:05;30.02;43.10
71088;SHT31;58747;50.674;4.616;2022-08-03T09:35:31;29.67;43.85
71088;SHT31;58747;50.674;4.616;2022-08-03T09:38:23;30.01;42.33
71088;SHT31;58747;50.674;4.616;2022-08-03T09:40:52;30.06;43.26
71088;SHT31;58747;50.674;4.616;2022-08-03T09:43:19;29.75;42.77
71088;SHT31;58747;50.674;4.616;2022-08-03T09:45:44;30.04;42.87
71088;SHT31;58747;50.674;4.616;2022-08-03T09:48:23;30.33;42.51
71088;SHT31;58747;50.674;4.616;2022-08-03T09:50:52;30.29;42.28
71088;SHT31;58747;50.674;4.616;2022-08-03T09:53:18;30.40;42.48
71088;SHT31;58747;50.674;4.616;2022-08-03T09:55:51;30.91;40.83
71088;SHT31;58747;50.674;4.616;2022-08-03T09:58:19;30.93;41.43
71088;SHT31;58747;50.674;4.616;2022-08-03T10:00:52;30.76;41.31
71088;SHT31;58747;50.674;4.616;2022-08-03T10:03:18;30.87;42.54
71088;SHT31;58747;50.674;4.616;2022-08-03T10:05:44;30.88;41.30
71088;SHT31;58747;50.674;4.616;2022-08-03T10:08:14;30.80;40.80
71088;SHT31;58747;50.674;4.616;2022-08-03T10:10:44;30.64;41.42
71088;SHT31;58747;50.674;4.616;2022-08-03T10:13:12;30.94;42.03
71088;SHT31;58747;50.674;4.616;2022-08-03T10:15:38;31.24;41.61
71088;SHT31;58747;50.674;4.616;2022-08-03T10:18:04;31.07;41.61
71088;SHT31;58747;50.674;4.616;2022-08-03T10:20:32;31.10;41.07
71088;SHT31;58747;50.674;4.616;2022-08-03T10:23:00;31.11;40.95
71088;SHT31;58747;50.674;4.616;2022-08-03T10:25:29;31.03;40.89
71088;SHT31;58747;50.674;4.616;2022-08-03T10:27:55;31.17;41.33
71088;SHT31;58747;50.674;4.616;2022-08-03T10:30:22;31.45;40.28
71088;SHT31;58747;50.674;4.616;2022-08-03T10:35:20;31.59;39.92
71088;SHT31;58747;50.674;4.616;2022-08-03T10:38:06;31.51;40.58
71088;SHT31;58747;50.674;4.616;2022-08-03T10:40:32;31.65;41.13
71088;SHT31;58747;50.674;4.616;2022-08-03T10:43:09;31.63;40.40
71088;SHT31;58747;50.674;4.616;2022-08-03T10:45:40;31.61;39.85
71088;SHT31;58747;50.674;4.616;2022-08-03T10:48:06;31.62;40.51
71088;SHT31;58747;50.674;4.616;2022-08-03T10:50:32;31.93;40.06
71088;SHT31;58747;50.674;4.616;2022-08-03T10:53:00;31.93;38.48
71088;SHT31;58747;50.674;4.616;2022-08-03T10:55:38;32.30;39.45
71088;SHT31;58747;50.674;4.616;2022-08-03T11:01:09;32.68;38.95
71088;SHT31;58747;50.674;4.616;2022-08-03T11:06:20;32.70;38.38
71088;SHT31;58747;50.674;4.616;2022-08-03T11:08:47;32.88;39.34
71088;SHT31;58747;50.674;4.616;2022-08-03T11:16:49;35.21;34.93
71088;SHT31;58747;50.674;4.616;2022-08-03T11:19:18;35.74;32.44
71088;SHT31;58747;50.674;4.616;2022-08-03T11:30:07;39.43;27.89
71088;SHT31;58747;50.674;4.616;2022-08-03T11:35:18;39.61;27.36
71088;SHT31;58747;50.674;4.616;2022-08-03T11:48:27;42.51;24.95
71088;SHT31;58747;50.674;4.616;2022-08-03T11:50:52;42.16;23.94
71088;SHT31;58747;50.674;4.616;2022-08-03T11:53:18;42.23;24.14
71088;SHT31;58747;50.674;4.616;2022-08-03T11:55:45;41.74;25.29
71088;SHT31;58747;50.674;4.616;2022-08-03T11:58:21;41.38;24.89
71088;SHT31;58747;50.674;4.616;2022-08-03T12:00:48;41.74;24.88
71088;SHT31;58747;50.674;4.616;2022-08-03T12:03:16;41.99;24.19
71088;SHT31;58747;50.674;4.616;2022-08-03T12:05:47;42.91;22.79
71088;SHT31;58747;50.674;4.616;2022-08-03T12:10:52;42.75;23.96
71088;SHT31;58747;50.674;4.616;2022-08-03T12:13:18;43.11;23.24
71088;SHT31;58747;50.674;4.616;2022-08-03T12:15:50;42.66;23.46
71088;SHT31;58747;50.674;4.616;2022-08-03T12:18:17;41.21;25.51
71088;SHT31;58747;50.674;4.616;2022-08-03T12:20:43;42.39;24.22
71088;SHT31;58747;50.674;4.616;2022-08-03T12:23:09;43.04;23.02
71088;SHT31;58747;50.674;4.616;2022-08-03T12:25:37;43.42;22.90
71088;SHT31;58747;50.674;4.616;2022-08-03T12:28:15;43.77;22.15
71088;SHT31;58747;50.674;4.616;2022-08-03T12:30:42;43.52;22.83
71088;SHT31;58747;50.674;4.616;2022-08-03T12:38:29;43.73;22.34
71088;SHT31;58747;50.674;4.616;2022-08-03T12:41:09;43.76;22.18
71088;SHT31;58747;50.674;4.616;2022-08-03T12:43:49;44.69;21.30
71088;SHT31;58747;50.674;4.616;2022-08-03T12:46:17;44.34;21.16
71088;SHT31;58747;50.674;4.616;2022-08-03T12:54:24;38.75;27.22
71088;SHT31;58747;50.674;4.616;2022-08-03T12:57:03;40.79;25.04
71088;SHT31;58747;50.674;4.616;2022-08-03T12:59:31;42.39;23.49
71088;SHT31;58747;50.674;4.616;2022-08-03T13:01:57;42.60;23.58
71088;SHT31;58747;50.674;4.616;2022-08-03T13:04:31;42.26;23.69
71088;SHT31;58747;50.674;4.616;2022-08-03T13:07:01;40.41;25.12
71088;SHT31;58747;50.674;4.616;2022-08-03T13:09:28;38.79;27.12
71088;SHT31;58747;50.674;4.616;2022-08-03T13:12:19;37.01;28.57
71088;SHT31;58747;50.674;4.616;2022-08-03T13:14:46;36.40;30.17
71088;SHT31;58747;50.674;4.616;2022-08-03T13:17:12;35.96;30.08
71088;SHT31;58747;50.674;4.616;2022-08-03T13:19:38;35.68;32.12
71088;SHT31;58747;50.674;4.616;2022-08-03T13:22:24;34.96;31.42
71088;SHT31;58747;50.674;4.616;2022-08-03T13:24:52;34.85;33.57
71088;SHT31;58747;50.674;4.616;2022-08-03T13:27:20;34.53;32.56
71088;SHT31;58747;50.674;4.616;2022-08-03T13:29:45;34.42;31.37
71088;SHT31;58747;50.674;4.616;2022-08-03T13:32:10;34.48;32.86
71088;SHT31;58747;50.674;4.616;2022-08-03T13:34:36;34.17;32.54
71088;SHT31;58747;50.674;4.616;2022-08-03T13:37:02;33.93;32.11
71088;SHT31;58747;50.674;4.616;2022-08-03T13:39:28;33.66;32.63
71088;SHT31;58747;50.674;4.616;2022-08-03T13:41:53;33.64;34.30
71088;SHT31;58747;50.674;4.616;2022-08-03T13:44:18;33.74;33.57
71088;SHT31;58747;50.674;4.616;2022-08-03T13:46:45;33.34;33.48
71088;SHT31;58747;50.674;4.616;2022-08-03T13:49:10;33.29;35.16
71088;SHT31;58747;50.674;4.616;2022-08-03T13:51:36;33.01;34.33
71088;SHT31;58747;50.674;4.616;2022-08-03T13:54:01;33.13;35.42
71088;SHT31;58747;50.674;4.616;2022-08-03T13:56:28;33.18;35.39
71088;SHT31;58747;50.674;4.616;2022-08-03T13:58:54;33.06;34.51
71088;SHT31;58747;50.674;4.616;2022-08-03T14:01:20;32.84;35.03
71088;SHT31;58747;50.674;4.616;2022-08-03T14:03:45;32.94;35.51
71088;SHT31;58747;50.674;4.616;2022-08-03T14:06:13;32.96;34.48
71088;SHT31;58747;50.674;4.616;2022-08-03T14:08:39;33.11;35.78
71088;SHT31;58747;50.674;4.616;2022-08-03T14:11:04;33.01;36.17
71088;SHT31;58747;50.674;4.616;2022-08-03T14:13:30;33.06;34.99
71088;SHT31;58747;50.674;4.616;2022-08-03T14:15:55;33.30;34.77
71088;SHT31;58747;50.674;4.616;2022-08-03T14:18:21;33.33;34.67
71088;SHT31;58747;50.674;4.616;2022-08-03T14:20:46;33.42;33.87
71088;SHT31;58747;50.674;4.616;2022-08-03T14:23:13;33.45;33.25
71088;SHT31;58747;50.674;4.616;2022-08-03T14:25:38;33.60;35.26
71088;SHT31;58747;50.674;4.616;2022-08-03T14:28:05;33.60;34.10
71088;SHT31;58747;50.674;4.616;2022-08-03T14:30:31;33.54;33.92
71088;SHT31;58747;50.674;4.616;2022-08-03T14:32:56;33.66;33.78
71088;SHT31;58747;50.674;4.616;2022-08-03T14:35:22;33.41;34.47
71088;SHT31;58747;50.674;4.616;2022-08-03T14:37:47;33.18;34.44
71088;SHT31;58747;50.674;4.616;2022-08-03T14:40:12;33.11;34.06
71088;SHT31;58747;50.674;4.616;2022-08-03T14:42:39;33.12;34.80
71088;SHT31;58747;50.674;4.616;2022-08-03T14:45:04;33.22;37.27
71088;SHT31;58747;50.674;4.616;2022-08-03T14:47:30;33.16;34.25
71088;SHT31;58747;50.674;4.616;2022-08-03T14:49:55;32.92;34.40
71088;SHT31;58747;50.674;4.616;2022-08-03T14:52:21;32.78;35.21
71088;SHT31;58747;50.674;4.616;2022-08-03T14:54:46;32.70;36.72
71088;SHT31;58747;50.674;4.616;2022-08-03T14:57:12;32.70;37.25
71088;SHT31;58747;50.674;4.616;2022-08-03T14:59:37;32.60;38.02
71088;SHT31;58747;50.674;4.616;2022-08-03T15:02:02;32.58;35.59
71088;SHT31;58747;50.674;4.616;2022-08-03T15:04:28;32.67;36.38
71088;SHT31;58747;50.674;4.616;2022-08-03T15:06:53;32.58;36.14
71088;SHT31;58747;50.674;4.616;2022-08-03T15:09:18;32.63;35.78
71088;SHT31;58747;50.674;4.616;2022-08-03T15:11:44;32.88;36.56
71088;SHT31;58747;50.674;4.616;2022-08-03T15:14:09;33.11;35.59
71088;SHT31;58747;50.674;4.616;2022-08-03T15:16:35;33.15;34.73
71088;SHT31;58747;50.674;4.616;2022-08-03T15:19:01;33.18;35.56
71088;SHT31;58747;50.674;4.616;2022-08-03T15:21:26;32.99;36.05
71088;SHT31;58747;50.674;4.616;2022-08-03T15:23:52;33.22;36.45
71088;SHT31;58747;50.674;4.616;2022-08-03T15:26:18;33.15;35.12
71088;SHT31;58747;50.674;4.616;2022-08-03T15:28:43;33.18;35.45
71088;SHT31;58747;50.674;4.616;2022-08-03T15:31:09;32.88;35.93
71088;SHT31;58747;50.674;4.616;2022-08-03T15:33:34;32.99;36.71
71088;SHT31;58747;50.674;4.616;2022-08-03T15:35:59;32.79;35.85
71088;SHT31;58747;50.674;4.616;2022-08-03T15:38:25;32.70;35.77
71088;SHT31;58747;50.674;4.616;2022-08-03T15:40:50;32.70;34.71
71088;SHT31;58747;50.674;4.616;2022-08-03T15:43:20;32.57;35.27
71088;SHT31;58747;50.674;4.616;2022-08-03T15:45:45;32.57;35.92
71088;SHT31;58747;50.674;4.616;2022-08-03T15:48:11;32.64;35.56
71088;SHT31;58747;50.674;4.616;2022-08-03T15:50:36;32.68;37.77
71088;SHT31;58747;50.674;4.616;2022-08-03T15:53:02;32.50;37.65
71088;SHT31;58747;50.674;4.616;2022-08-03T15:55:28;32.53;36.17
71088;SHT31;58747;50.674;4.616;2022-08-03T15:57:53;32.63;38.08
71088;SHT31;58747;50.674;4.616;2022-08-03T16:00:19;32.61;36.45
71088;SHT31;58747;50.674;4.616;2022-08-03T16:02:45;32.58;35.90
71088;SHT31;58747;50.674;4.616;2022-08-03T16:05:10;32.64;37.19
71088;SHT31;58747;50.674;4.616;2022-08-03T16:07:35;32.65;35.83
71088;SHT31;58747;50.674;4.616;2022-08-03T16:10:08;32.65;36.23
71088;SHT31;58747;50.674;4.616;2022-08-03T16:12:33;32.64;35.51
71088;SHT31;58747;50.674;4.616;2022-08-03T16:14:59;32.71;35.58
71088;SHT31;58747;50.674;4.616;2022-08-03T16:17:25;32.65;36.78
71088;SHT31;58747;50.674;4.616;2022-08-03T16:19:50;32.50;35.69
71088;SHT31;58747;50.674;4.616;2022-08-03T16:22:16;32.51;36.60
71088;SHT31;58747;50.674;4.616;2022-08-03T16:24:42;32.55;36.56
71088;SHT31;58747;50.674;4.616;2022-08-03T16:27:07;32.54;35.77
71088;SHT31;58747;50.674;4.616;2022-08-03T16:29:33;32.70;35.94
71088;SHT31;58747;50.674;4.616;2022-08-03T16:31:58;32.61;36.13
71088;SHT31;58747;50.674;4.616;2022-08-03T16:34:31;32.57;37.46
71088;SHT31;58747;50.674;4.616;2022-08-03T16:36:56;32.45;35.65
71088;SHT31;58747;50.674;4.616;2022-08-03T16:39:22;32.41;37.03